Time;durP1;ratioP1;P1;durP2;ratioP2;P2;SDS_P1;SDS_P2;PMS_P1;PMS_P2;Temp;Humidity;BMP_temperature;BMP_pressure;BME280_temperature;BME280_humidity;BME280_pressure;Samples;Min_cycle;Max_cycle;Signal;HPM_P1;HPM_P2
2022/05/12 00:00:20;;;;;;;8.65;3.05;;;;;;;11.95;100.00;163687.84;4991715;28;20030;-56
2022/05/12 00:02:45;;;;;;;9.40;4.22;;;;;;;11.94;100.00;163686.50;4984572;28;20042;-56
2022/05/12 00:05:12;;;;;;;11.10;2.83;;;;;;;11.90;100.00;163675.69;4984724;28;20050;-56
2022/05/12 00:07:38;;;;;;;10.52;3.35;;;;;;;11.84;100.00;163659.47;4978626;28;20073;-56
2022/05/12 00:10:06;;;;;;;8.05;2.97;;;;;;;11.74;100.00;163635.16;4972567;28;20031;-56
2022/05/12 00:12:31;;;;;;;11.98;2.45;;;;;;;11.65;100.00;163609.50;4970154;28;20109;-55
2022/05/12 00:14:56;;;;;;;5.32;1.98;;;;;;;11.65;100.00;163610.88;4982845;28;20022;-56
2022/05/12 00:17:22;;;;;;;8.80;1.88;;;;;;;11.61;100.00;163598.72;4989008;28;20047;-56
2022/05/12 00:19:47;;;;;;;24.73;5.60;;;;;;;11.42;100.00;163551.44;4974431;28;20040;-56
2022/05/12 00:22:12;;;;;;;10.88;2.70;;;;;;;11.52;100.00;163575.72;4980568;28;20465;-56
2022/05/12 00:24:38;;;;;;;11.15;2.92;;;;;;;11.46;100.00;163559.50;4972096;28;20022;-56
2022/05/12 00:27:03;;;;;;;14.20;4.10;;;;;;;11.36;100.00;163535.19;4970477;28;20127;-57
2022/05/12 00:29:29;;;;;;;9.25;1.85;;;;;;;11.27;100.00;163512.25;4980842;28;20084;-57
2022/05/12 00:31:54;;;;;;;10.77;3.00;;;;;;;11.24;100.00;163502.81;4990091;28;20042;-57
2022/05/12 00:34:21;;;;;;;11.80;3.30;;;;;;;11.17;100.00;163483.91;4975998;28;20062;-56
2022/05/12 00:36:46;;;;;;;6.07;3.60;;;;;;;11.13;100.00;163474.44;4974620;28;20165;-56
2022/05/12 00:39:12;;;;;;;2.63;1.67;;;;;;;10.93;100.00;163421.78;4991166;28;20558;-56
2022/05/12 00:41:38;;;;;;;5.35;2.33;;;;;;;11.03;100.00;163448.81;4989464;28;20030;-56
2022/05/12 00:44:07;;;;;;;5.55;3.15;;;;;;;10.97;100.00;163432.63;4991441;28;20285;-56
2022/05/12 00:46:36;;;;;;;8.30;2.75;;;;;;;10.89;100.00;163411.00;4989856;28;20441;-56
2022/05/12 00:49:05;;;;;;;;;;;;;;;10.85;100.00;163400.19;4982487;28;20042;-56
2022/05/12 00:51:36;;;;;;;6.93;3.50;;;;;;;10.79;100.00;163386.69;4984088;28;19928;-56
2022/05/12 00:54:05;;;;;;;8.65;2.85;;;;;;;10.69;100.00;163358.34;4990781;28;20034;-56
2022/05/12 00:56:35;;;;;;;4.25;2.75;;;;;;;10.66;100.00;163351.59;4989245;28;20117;-56
2022/05/12 00:59:09;;;;;;;10.13;2.38;;;;;;;10.49;100.00;163307.06;4978068;28;20501;-55
2022/05/12 01:01:37;;;;;;;8.20;2.65;;;;;;;10.66;100.00;163351.59;4973327;28;20045;-56
2022/05/12 01:04:02;;;;;;;5.15;2.45;;;;;;;10.60;100.00;163335.41;4975219;28;20086;-55
2022/05/12 01:06:28;;;;;;;7.70;2.13;;;;;;;10.40;100.00;163284.09;4975057;28;20043;-56
2022/05/12 01:08:53;;;;;;;7.38;2.63;;;;;;;10.45;100.00;163297.63;4980882;28;20422;-56
2022/05/12 01:11:21;;;;;;;6.13;2.65;;;;;;;10.41;100.00;163286.81;4993193;28;20042;-56
2022/05/12 01:13:59;;;;;;;6.23;2.73;;;;;;;10.36;100.00;163273.25;4982420;28;20036;-56
2022/05/12 01:16:53;;;;;;;13.57;4.10;;;;;;;10.27;100.00;163248.97;4993170;28;20564;-56
2022/05/12 01:19:32;;;;;;;12.85;4.75;;;;;;;10.21;100.00;163232.78;4994349;28;20070;-55
2022/05/12 01:21:58;;;;;;;10.43;3.15;;;;;;;10.18;100.00;163224.66;4991715;28;20479;-55
2022/05/12 01:24:32;;;;;;;4.82;2.30;;;;;;;10.15;100.00;163217.91;4994883;28;20057;-56
2022/05/12 01:27:18;;;;;;;9.45;2.40;;;;;;;10.08;100.00;163200.41;4984261;28;20034;-56
2022/05/12 01:29:43;;;;;;;10.85;3.85;;;;;;;9.91;100.00;163155.84;4975005;28;20045;-56
2022/05/12 01:32:08;;;;;;;8.13;3.55;;;;;;;10.03;100.00;163186.88;4973881;28;20042;-56
2022/05/12 01:34:34;;;;;;;5.80;2.83;;;;;;;9.99;100.00;163177.44;4991017;28;20029;-56
2022/05/12 01:36:59;;;;;;;5.13;2.63;;;;;;;9.87;100.00;163145.06;4992926;28;20049;-59
2022/05/12 01:39:24;;;;;;;9.43;2.60;;;;;;;9.88;100.00;163146.41;4994586;28;20045;-56
2022/05/12 01:41:50;;;;;;;10.07;2.33;;;;;;;9.83;100.00;163135.63;4992489;28;20501;-56
2022/05/12 01:44:15;;;;;;;8.10;3.22;;;;;;;9.79;100.00;163123.47;4994594;28;20398;-56
2022/05/12 01:46:40;;;;;;;13.15;4.13;;;;;;;9.79;100.00;163123.47;4976255;28;20097;-57
2022/05/12 01:49:06;;;;;;;10.10;2.55;;;;;;;9.73;100.00;163108.63;4974676;28;20078;-57
2022/05/12 01:51:33;;;;;;;3.88;2.63;;;;;;;9.66;100.00;163089.75;4986524;28;20034;-57
2022/05/12 01:53:58;;;;;;;8.77;2.97;;;;;;;9.60;100.00;163073.56;4975610;28;20491;-57
2022/05/12 01:56:23;;;;;;;14.25;3.35;;;;;;;9.52;100.00;163054.69;4992507;28;20093;-57
2022/05/12 01:58:49;;;;;;;9.85;3.75;;;;;;;9.48;100.00;163043.91;4993866;28;20022;-57
2022/05/12 02:01:14;;;;;;;5.75;3.05;;;;;;;9.43;100.00;163030.38;4992288;28;20414;-56
2022/05/12 02:03:39;;;;;;;8.68;3.05;;;;;;;9.40;100.00;163022.31;4993069;28;20047;-56
2022/05/12 02:06:05;;;;;;;6.53;3.28;;;;;;;9.34;100.00;163007.47;4992741;28;20050;-56
2022/05/12 02:08:30;;;;;;;7.30;2.97;;;;;;;9.30;100.00;162995.34;4993778;28;20030;-56
2022/05/12 02:10:55;;;;;;;6.88;2.92;;;;;;;9.25;100.00;162981.84;4976780;28;20097;-56
2022/05/12 02:13:25;;;;;;;8.65;3.42;;;;;;;9.18;100.00;162965.69;4973409;28;20087;-56
2022/05/12 02:15:51;;;;;;;7.20;2.65;;;;;;;9.16;100.00;162960.28;4982510;28;20041;-56
2022/05/12 02:18:20;;;;;;;7.30;2.42;;;;;;;9.10;100.00;162944.09;4977776;28;20053;-56
2022/05/12 02:20:45;;;;;;;6.22;2.50;;;;;;;9.08;100.00;162938.69;4974011;28;20123;-57
2022/05/12 02:23:10;;;;;;;9.30;2.53;;;;;;;9.00;100.00;162917.13;4974369;28;20131;-56
2022/05/12 02:25:36;;;;;;;17.23;4.10;;;;;;;8.94;100.00;162900.94;4972384;28;20046;-57
2022/05/12 02:28:01;;;;;;;6.55;2.97;;;;;;;8.85;100.00;162878.03;4974446;28;20019;-57
2022/05/12 02:30:30;;;;;;;5.90;3.28;;;;;;;8.84;100.00;162875.34;4972954;28;20049;-57
2022/05/12 02:32:56;;;;;;;5.60;3.13;;;;;;;8.76;100.00;162855.09;4973821;28;20027;-57
2022/05/12 02:35:22;;;;;;;5.45;3.10;;;;;;;8.46;100.00;162775.50;4972368;28;20027;-57
2022/05/12 02:37:48;;;;;;;7.97;3.55;;;;;;;8.44;100.00;162770.13;4978505;28;20470;-57
2022/05/12 02:40:17;;;;;;;6.50;3.35;;;;;;;8.34;100.00;162744.50;4993287;28;20026;-57
2022/05/12 02:42:43;;;;;;;5.70;2.78;;;;;;;8.28;100.00;162728.34;4992004;28;20512;-57
2022/05/12 02:45:09;;;;;;;6.20;2.50;;;;;;;8.25;100.00;162722.94;4983491;28;20035;-56
2022/05/12 02:47:34;;;;;;;4.25;2.30;;;;;;;8.25;100.00;162722.94;4973051;28;20038;-56
2022/05/12 02:50:00;;;;;;;12.93;4.15;;;;;;;8.20;100.00;162709.47;4991774;28;20385;-56
2022/05/12 02:52:25;;;;;;;12.60;3.67;;;;;;;8.14;100.00;162691.94;4979964;28;20050;-56
2022/05/12 02:54:51;;;;;;;14.55;3.72;;;;;;;8.09;100.00;162679.81;4992352;28;20027;-57
2022/05/12 02:57:16;;;;;;;7.70;3.50;;;;;;;8.12;100.00;162687.91;4991068;28;20046;-57
2022/05/12 02:59:41;;;;;;;8.77;4.35;;;;;;;8.09;100.00;162679.81;4973509;28;20034;-57
2022/05/12 03:02:07;;;;;;;9.30;4.38;;;;;;;8.07;100.00;162674.44;4972016;28;20046;-57
2022/05/12 03:04:33;;;;;;;11.52;3.92;;;;;;;8.03;100.00;162663.63;4984681;28;20056;-57
2022/05/12 03:06:59;;;;;;;7.50;3.25;;;;;;;7.98;100.00;162650.19;4991339;28;20441;-56
2022/05/12 03:09:24;;;;;;;12.95;4.75;;;;;;;7.97;100.00;162647.47;4992910;28;20433;-57
2022/05/12 03:11:50;;;;;;;13.57;5.38;;;;;;;7.96;100.00;162644.78;4987407;28;20043;-57
2022/05/12 03:14:15;;;;;;;10.07;4.65;;;;;;;7.95;100.00;162643.44;4973549;28;20031;-57
2022/05/12 03:16:42;;;;;;;10.25;4.68;;;;;;;7.92;100.00;162636.72;4982664;28;20046;-57
2022/05/12 03:19:07;;;;;;;10.52;4.53;;;;;;;7.89;100.00;162628.63;4991133;28;20430;-57
2022/05/12 03:21:33;;;;;;;7.45;4.05;;;;;;;7.86;100.00;162619.19;4977231;28;20066;-57
2022/05/12 03:23:58;;;;;;;13.70;5.63;;;;;;;7.84;100.00;162615.16;4972892;28;20097;-57
2022/05/12 03:26:24;;;;;;;13.00;4.70;;;;;;;7.79;100.00;162601.66;4980564;28;20042;-57
2022/05/12 03:28:49;;;;;;;12.98;5.00;;;;;;;7.79;100.00;162601.66;4992457;28;20486;-57
2022/05/12 03:31:15;;;;;;;12.95;5.60;;;;;;;7.79;100.00;162601.66;4980886;28;20061;-57
2022/05/12 03:33:40;;;;;;;10.10;4.30;;;;;;;7.77;100.00;162597.63;4972406;28;20146;-57
2022/05/12 03:36:07;;;;;;;12.60;5.43;;;;;;;7.56;100.00;162542.38;4978928;28;20047;-57
2022/05/12 03:38:33;;;;;;;12.50;4.65;;;;;;;7.69;100.00;162574.72;4991786;28;20070;-57
2022/05/12 03:40:59;;;;;;;11.60;4.97;;;;;;;7.67;100.00;162570.66;4990575;28;20201;-57
2022/05/12 03:46:09;;;;;;;13.88;5.25;;;;;;;7.70;100.00;162578.75;4990814;28;20041;-56
2022/05/12 03:48:36;;;;;;;16.60;4.70;;;;;;;7.72;100.00;162582.78;4991539;28;20054;-57
2022/05/12 03:51:02;;;;;;;10.68;4.68;;;;;;;7.72;100.00;162582.78;4977073;28;20129;-56
2022/05/12 03:53:28;;;;;;;10.25;5.65;;;;;;;7.67;100.00;162569.31;4972553;28;20030;-57
2022/05/12 03:55:54;;;;;;;19.45;5.80;;;;;;;7.58;100.00;162547.75;4976513;28;20042;-56
2022/05/12 03:58:19;;;;;;;19.48;5.15;;;;;;;7.53;100.00;162534.31;4991659;28;20049;-56
2022/05/12 04:00:44;;;;;;;11.43;4.85;;;;;;;7.53;100.00;162534.31;4990219;28;20042;-57
2022/05/12 04:03:10;;;;;;;11.85;4.40;;;;;;;7.55;100.00;162538.34;4974918;28;20026;-57
2022/05/12 04:05:35;;;;;;;10.77;5.32;;;;;;;7.54;100.00;162537.00;4988092;28;20047;-58
2022/05/12 04:08:00;;;;;;;14.02;5.72;;;;;;;7.53;100.00;162534.31;4986242;28;20018;-55
2022/05/12 04:10:27;;;;;;;13.82;5.55;;;;;;;7.52;100.00;162531.59;4983471;28;20101;-59
2022/05/12 04:12:52;;;;;;;13.63;5.35;;;;;;;7.51;100.00;162528.91;4987860;28;20026;-55
2022/05/12 04:15:20;;;;;;;19.30;6.25;;;;;;;7.51;100.00;162528.91;4985193;28;20033;-54
2022/05/12 04:17:55;;;;;;;15.57;6.00;;;;;;;7.55;100.00;162538.34;4986871;28;20109;-54
2022/05/12 04:20:21;;;;;;;12.93;4.93;;;;;;;7.55;100.00;162539.72;4983752;28;20018;-53
2022/05/12 04:22:46;;;;;;;10.32;4.75;;;;;;;7.57;100.00;162545.06;4986382;28;20022;-54
2022/05/12 04:25:12;;;;;;;14.75;5.00;;;;;;;7.58;100.00;162546.44;4987571;28;20039;-54
2022/05/12 04:27:38;;;;;;;32.58;10.43;;;;;;;7.56;100.00;162542.38;4982441;28;20512;-54
2022/05/12 04:30:05;;;;;;;16.10;5.43;;;;;;;7.57;100.00;162545.06;4989340;28;20034;-54
2022/05/12 04:32:31;;;;;;;11.35;5.70;;;;;;;7.61;100.00;162554.50;4983621;28;20516;-54
2022/05/12 04:35:12;;;;;;;19.40;7.32;;;;;;;7.68;100.00;162572.03;4990385;28;20034;-54
2022/05/12 04:37:53;;;;;;;19.52;7.05;;;;;;;7.77;100.00;162596.28;4985790;28;20460;-54
2022/05/12 04:40:24;;;;;;;13.85;6.03;;;;;;;7.86;100.00;162619.19;4990013;28;20587;-54
2022/05/12 04:42:51;;;;;;;15.20;7.65;;;;;;;7.99;100.00;162652.88;4991062;28;20018;-54
2022/05/12 04:45:18;;;;;;;15.38;6.53;;;;;;;8.08;100.00;162677.09;4990170;28;20486;-54
2022/05/12 04:47:44;;;;;;;17.95;7.05;;;;;;;8.16;100.00;162698.66;4991049;28;20500;-54
2022/05/12 04:50:13;;;;;;;15.15;7.00;;;;;;;8.23;100.00;162717.53;4982326;28;20113;-54
2022/05/12 04:52:38;;;;;;;;;;;;;;;8.30;100.00;162733.75;4987925;28;20034;-54
2022/05/12 04:55:04;;;;;;;19.02;10.05;;;;;;;8.38;100.00;162756.66;4989185;28;19964;-54
2022/05/12 04:57:41;;;;;;;18.95;8.48;;;;;;;8.46;100.00;162776.84;4988759;28;20038;-54
2022/05/12 05:00:10;;;;;;;38.13;10.63;;;;;;;8.57;100.00;162806.56;4990997;28;20054;-54
2022/05/12 05:02:35;;;;;;;21.80;11.35;;;;;;;8.70;100.00;162838.91;5004515;28;20415;-54
2022/05/12 05:05:01;;;;;;;16.48;8.20;;;;;;;8.83;100.00;162873.94;4991333;28;20043;-54
2022/05/12 05:07:26;;;;;;;19.08;11.45;;;;;;;8.93;100.00;162899.63;4989975;28;20498;-53
2022/05/12 05:09:52;;;;;;;18.50;9.85;;;;;;;9.03;100.00;162925.22;4990962;28;20030;-54
2022/05/12 05:12:18;;;;;;;19.40;11.50;;;;;;;9.13;100.00;162952.16;4989954;28;20137;-54
2022/05/12 05:14:43;;;;;;;18.95;12.15;;;;;;;9.23;100.00;162976.44;4991054;28;20030;-54
2022/05/12 05:17:09;;;;;;;29.10;12.63;;;;;;;9.35;100.00;163010.19;4989639;28;20049;-54
2022/05/12 05:19:35;;;;;;;26.80;11.55;;;;;;;9.43;100.00;163030.38;4991129;28;20026;-54
2022/05/12 05:22:00;;;;;;;18.23;11.23;;;;;;;9.55;100.00;163060.09;4990007;28;20038;-54
2022/05/12 05:24:26;;;;;;;28.60;11.40;;;;;;;9.66;100.00;163089.75;4990769;28;20385;-54
2022/05/12 05:26:51;;;;;;;21.10;10.02;;;;;;;9.77;100.00;163119.44;4989723;28;20046;-54
2022/05/12 05:29:16;;;;;;;22.85;11.25;;;;;;;9.67;100.00;163092.44;4991450;28;20603;-54
2022/05/12 05:31:42;;;;;;;18.45;11.52;;;;;;;9.96;100.00;163168.00;4989053;28;20039;-54
2022/05/12 05:34:09;;;;;;;27.00;12.82;;;;;;;10.05;100.00;163192.28;4991352;28;20030;-54
2022/05/12 05:36:34;;;;;;;22.42;10.88;;;;;;;10.13;100.00;163213.88;4989465;28;20045;-56
2022/05/12 05:39:00;;;;;;;19.23;11.88;;;;;;;10.28;100.00;163251.66;4990903;28;20022;-53
2022/05/12 05:41:25;;;;;;;18.13;11.32;;;;;;;10.34;100.00;163267.84;4989854;28;20522;-54
2022/05/12 05:43:50;;;;;;;25.23;11.80;;;;;;;10.41;100.00;163286.81;4990764;28;20025;-53
2022/05/12 05:46:16;;;;;;;17.35;11.77;;;;;;;10.45;100.00;163297.63;4990255;28;20038;-54
2022/05/12 05:48:43;;;;;;;23.52;11.90;;;;;;;10.56;100.00;163325.97;4994488;28;20034;-54
2022/05/12 05:53:54;;;;;;;21.27;12.35;;;;;;;10.72;100.00;163367.78;4994293;28;20439;-53
2022/05/12 05:56:20;;;;;;;19.35;9.73;;;;;;;10.86;100.00;163402.88;4991725;28;20054;-54
2022/05/12 05:58:46;;;;;;;21.83;11.43;;;;;;;10.91;100.00;163416.38;4992893;28;20662;-53
2022/05/12 06:01:12;;;;;;;26.23;11.00;;;;;;;11.00;100.00;163439.34;4992759;28;20108;-54
2022/05/12 06:03:38;;;;;;;17.10;12.18;;;;;;;11.13;100.00;163473.13;4993334;28;20042;-53
2022/05/12 06:06:03;;;;;;;19.60;11.25;;;;;;;11.23;100.00;163500.09;4992489;28;20568;-54
2022/05/12 06:08:29;;;;;;;15.93;10.27;;;;;;;11.36;100.00;163535.19;4993661;28;20030;-54
2022/05/12 06:10:55;;;;;;;17.58;11.05;;;;;;;11.50;100.00;163570.34;4992335;28;20413;-54
2022/05/12 06:13:20;;;;;;;11.80;9.73;;;;;;;11.54;100.00;163581.13;4992725;28;20037;-54
2022/05/12 06:15:46;;;;;;;15.07;11.05;;;;;;;11.78;100.00;163643.28;4990453;28;20041;-54
2022/05/12 06:18:15;;;;;;;18.95;9.68;;;;;;;11.78;100.00;163643.28;4992725;28;20026;-53
2022/05/12 06:20:43;;;;;;;14.95;8.55;;;;;;;11.92;100.00;163681.09;4991314;28;20133;-54
2022/05/12 06:23:10;;;;;;;13.05;10.23;;;;;;;12.11;100.00;163729.75;4990824;28;20014;-54
2022/05/12 06:25:36;;;;;;;16.35;9.82;;;;;;;12.01;100.00;163704.09;4992341;28;20030;-54
2022/05/12 06:28:01;;;;;;;15.23;11.32;;;;;;;12.25;100.00;163767.59;4993769;28;20037;-54
2022/05/12 06:30:29;;;;;;;17.15;12.02;;;;;;;12.47;100.00;163825.72;4992052;28;20034;-54
2022/05/12 06:32:56;;;;;;;17.27;9.85;;;;;;;12.61;100.00;163862.22;4993900;28;20029;-54
2022/05/12 06:35:23;;;;;;;37.00;11.70;;;;;;;12.73;100.00;163891.94;4992107;28;20410;-54
2022/05/12 06:37:49;;;;;;;13.73;8.20;;;;;;;12.93;100.00;163945.97;4993075;28;20772;-54
2022/05/12 06:40:15;;;;;;;11.75;8.77;;;;;;;13.14;100.00;164000.09;4993776;28;20030;-54
2022/05/12 06:42:41;;;;;;;9.90;7.70;;;;;;;13.59;100.00;164117.75;4991752;28;20049;-54
2022/05/12 06:45:08;;;;;;;17.75;8.52;;;;;;;14.49;100.00;164354.44;4993226;28;20030;-54
2022/05/12 06:47:33;;;;;;;8.55;6.32;;;;;;;15.34;100.00;164576.47;4991858;28;20042;-55
2022/05/12 06:50:01;;;;;;;14.35;6.68;;;;;;;15.57;100.00;164636.03;4993549;28;20381;-54
2022/05/12 06:52:27;;;;;;;10.90;5.72;;;;;;;15.75;100.00;164684.75;4991711;28;20042;-54
2022/05/12 06:54:52;;;;;;;11.57;6.97;;;;;;;15.78;100.00;164692.88;4993002;28;20076;-54
2022/05/12 06:57:22;;;;;;;11.88;7.10;;;;;;;15.96;100.00;164740.31;4991708;28;20042;-54
2022/05/12 06:59:49;;;;;;;12.73;7.15;;;;;;;15.98;100.00;164745.75;4992457;28;20030;-54
2022/05/12 07:02:14;;;;;;;9.75;6.78;;;;;;;15.79;100.00;164695.59;4991882;28;20552;-54
2022/05/12 07:04:40;;;;;;;10.48;6.65;;;;;;;15.80;100.00;164696.94;4992893;28;20054;-54
2022/05/12 07:07:05;;;;;;;10.77;5.82;;;;;;;16.08;100.00;164771.47;4991382;28;20038;-54
2022/05/12 07:09:31;;;;;;;12.38;5.75;;;;;;;16.05;100.00;164763.31;4992938;28;20501;-54
2022/05/12 07:11:57;;;;;;;11.55;6.43;;;;;;;15.98;100.00;164744.38;4991523;28;20069;-54
2022/05/12 07:14:24;;;;;;;5.93;4.60;;;;;;;15.96;100.00;164739.00;4993065;28;20417;-54
2022/05/12 07:16:49;;;;;;;12.60;6.40;;;;;;;15.82;100.00;164703.69;4991165;28;20042;-54
2022/05/12 07:19:15;;;;;;;12.77;7.43;;;;;;;15.64;100.00;164654.97;4992957;28;20033;-54
2022/05/12 07:27:12;;;;;;;15.32;6.25;;;;;;;15.27;100.00;164557.50;4991408;28;20108;-54
2022/05/12 07:29:38;;;;;;;9.15;6.07;;;;;;;15.21;100.00;164544.00;4992178;28;20421;-54
2022/05/12 07:32:04;;;;;;;11.50;6.18;;;;;;;15.38;100.00;164587.25;4991276;28;20477;-54
2022/05/12 07:34:30;;;;;;;12.73;5.38;;;;;;;15.43;100.00;164600.84;4992397;28;20122;-54
2022/05/12 07:36:56;;;;;;;7.90;5.07;;;;;;;15.27;100.00;164557.50;4990754;28;20510;-54
2022/05/12 07:39:26;;;;;;;8.85;5.40;;;;;;;15.50;100.00;164619.78;4992525;28;20033;-54
2022/05/12 07:41:52;;;;;;;11.55;5.53;;;;;;;15.43;100.00;164600.84;4990809;28;20041;-54
2022/05/12 07:44:19;;;;;;;10.02;6.18;;;;;;;15.63;100.00;164652.25;4992308;28;20026;-54
2022/05/12 07:46:46;;;;;;;6.43;4.82;;;;;;;15.62;100.00;164649.53;4990643;28;20546;-54
2022/05/12 07:49:12;;;;;;;9.73;4.07;;;;;;;15.41;100.00;164595.41;4992499;28;20027;-54
2022/05/12 07:51:37;;;;;;;8.90;4.18;;;;;;;15.64;100.00;164654.97;4990292;28;20096;-54
2022/05/12 07:54:02;;;;;;;7.90;4.90;;;;;;;15.96;100.00;164739.00;4992285;28;20057;-54
2022/05/12 07:56:29;;;;;;;9.25;3.78;;;;;;;16.12;100.00;164782.28;4990700;28;20411;-54
2022/05/12 07:58:56;;;;;;;9.07;5.70;;;;;;;16.00;100.00;164749.81;4991900;28;20105;-54
2022/05/12 08:01:22;;;;;;;5.10;3.30;;;;;;;16.29;100.00;164825.63;4990795;28;20113;-54
2022/05/12 08:03:48;;;;;;;12.02;4.13;;;;;;;16.49;100.00;164879.81;4991867;28;20050;-54
2022/05/12 08:06:15;;;;;;;9.73;4.00;;;;;;;16.33;100.00;164837.84;4990497;28;20101;-54
2022/05/12 08:08:42;;;;;;;5.18;3.33;;;;;;;16.14;100.00;164787.72;4991650;28;20029;-54
2022/05/12 08:11:08;;;;;;;9.13;4.13;;;;;;;16.53;100.00;164887.94;4989790;28;20042;-54
2022/05/12 08:13:34;;;;;;;10.27;3.88;;;;;;;16.90;100.00;164985.50;4991486;28;20026;-55
2022/05/12 08:16:00;;;;;;;5.55;2.58;;;;;;;16.75;100.00;164946.22;4989243;28;20046;-54
2022/05/12 08:18:26;;;;;;;9.73;4.90;;;;;;;16.81;100.00;164962.47;4991860;28;20104;-54
2022/05/12 08:20:53;;;;;;;8.48;4.50;;;;;;;17.78;100.00;165217.31;4989882;28;20037;-55
2022/05/12 08:23:19;;;;;;;9.05;5.38;;;;;;;18.27;100.00;165346.16;4991888;28;20424;-55
2022/05/12 08:25:45;;;;;;;10.35;4.20;;;;;;;18.43;100.00;165386.81;4990250;28;20030;-54
2022/05/12 08:28:15;;;;;;;10.02;5.15;;;;;;;18.69;100.00;165457.31;4991568;28;20037;-55
2022/05/12 08:30:43;;;;;;;6.20;3.40;;;;;;;18.34;100.00;165365.13;4990085;28;20038;-54
2022/05/12 08:33:08;;;;;;;7.47;4.18;;;;;;;18.11;100.00;165302.75;4991883;28;20045;-54
2022/05/12 08:35:33;;;;;;;7.10;3.25;;;;;;;17.71;100.00;165198.31;4989629;28;20031;-54
2022/05/12 08:37:59;;;;;;;11.80;3.78;;;;;;;16.37;100.00;164847.31;4991740;28;20030;-54
2022/05/12 08:40:30;;;;;;;6.05;3.55;;;;;;;16.44;100.00;164866.28;4990256;28;20044;-54
2022/05/12 08:43:01;;;;;;;13.02;3.75;;;;;;;16.71;100.00;164936.75;4991545;28;20113;-55
2022/05/12 08:45:27;;;;;;;4.85;2.95;;;;;;;17.51;100.00;165145.44;4990296;28;20023;-54
2022/05/12 08:47:55;;;;;;;8.57;3.20;;;;;;;17.91;100.00;165251.16;4991500;28;20359;-54
2022/05/12 08:50:26;;;;;;;9.13;2.75;;;;;;;17.07;100.00;165030.25;4989817;28;20027;-54
2022/05/12 08:52:57;;;;;;;8.15;2.97;;;;;;;16.99;100.00;165009.94;4991231;28;20474;-54
2022/05/12 08:55:44;;;;;;;7.22;3.03;;;;;;;17.17;100.00;165057.38;4990078;28;20117;-54
2022/05/12 08:58:25;;;;;;;6.25;2.47;;;;;;;16.87;100.00;164977.34;4991307;28;20109;-54
2022/05/12 09:00:56;;;;;;;8.82;2.95;;;;;;;16.88;100.00;164981.44;4989984;28;20045;-54
2022/05/12 09:03:36;;;;;;;6.38;2.53;;;;;;;16.33;100.00;164836.50;4991378;28;20030;-54
2022/05/12 09:06:05;;;;;;;11.43;3.67;;;;;;;16.57;100.00;164898.81;4989370;28;20169;-54
2022/05/12 09:08:39;;;;;;;9.27;3.30;;;;;;;17.26;100.00;165081.75;4991480;28;20031;-54
2022/05/12 09:11:28;;;;;;;6.93;3.58;;;;;;;18.03;100.00;165283.75;4990274;28;20035;-54
2022/05/12 09:13:54;;;;;;;11.52;2.33;;;;;;;18.23;100.00;165336.66;4990770;28;20471;-55
2022/05/12 09:16:24;;;;;;;12.65;4.65;;;;;;;18.32;100.00;165359.69;4989975;28;20073;-54
2022/05/12 09:18:52;;;;;;;5.00;2.30;;;;;;;18.75;100.00;165470.88;4987314;28;20030;-54
2022/05/12 09:21:24;;;;;;;6.57;3.43;;;;;;;19.37;100.00;165633.72;4976425;28;20073;-54
2022/05/12 09:23:49;;;;;;;4.75;2.35;;;;;;;19.88;100.00;165769.44;4983221;28;20460;-54
2022/05/12 09:26:33;;;;;;;7.30;3.00;;;;;;;20.01;100.00;165802.00;4993606;28;20046;-55
2022/05/12 09:29:27;;;;;;;4.03;2.42;;;;;;;19.86;100.00;165764.00;4994641;28;20022;-55
2022/05/12 09:32:03;;;;;;;5.93;2.60;;;;;;;19.30;100.00;165617.44;4993246;28;20043;-54
2022/05/12 09:34:31;;;;;;;6.47;2.72;;;;;;;18.63;100.00;165441.06;4994493;28;20485;-54
2022/05/12 09:37:12;;;;;;;8.60;3.30;;;;;;;18.82;100.00;165491.25;4993167;28;20121;-54
2022/05/12 09:39:44;;;;;;;7.18;2.38;;;;;;;18.89;100.00;165508.84;4994617;28;20026;-54
2022/05/12 09:42:27;;;;;;;9.07;3.47;;;;;;;18.89;100.00;165508.84;4992923;28;20042;-54
2022/05/12 09:44:57;;;;;;;5.97;2.65;;;;;;;19.04;100.00;165548.25;4994569;28;20053;-55
2022/05/12 09:47:24;;;;;;;6.28;2.67;;;;;;;19.17;100.00;165582.19;4992946;28;20514;-54
2022/05/12 09:49:49;;;;;;;5.15;2.95;;;;;;;19.22;100.00;165595.72;4993648;28;20037;-54
2022/05/12 09:52:36;;;;;;;5.18;3.03;;;;;;;19.68;100.00;165715.13;4992759;28;20042;-55
2022/05/12 09:55:11;;;;;;;4.22;2.88;;;;;;;19.81;100.00;165751.72;4994389;28;20026;-55
2022/05/12 09:57:45;;;;;;;8.20;3.95;;;;;;;19.84;100.00;165758.63;4992158;28;20050;-55
2022/05/12 10:00:25;;;;;;;5.10;2.17;;;;;;;20.12;100.00;165831.88;4994349;28;20022;-53
2022/05/12 10:08:28;;;;;;;7.43;3.25;;;;;;;19.78;100.00;165742.25;4994117;28;20060;-55
2022/05/12 10:11:06;;;;;;;8.25;3.25;;;;;;;19.62;100.00;165701.53;4991467;28;20038;-54
2022/05/12 10:13:35;;;;;;;5.95;2.65;;;;;;;19.71;100.00;165723.25;4990333;28;20030;-55
2022/05/12 10:16:00;;;;;;;7.53;2.97;;;;;;;20.02;100.00;165804.72;4991096;28;20042;-54
2022/05/12 10:18:26;;;;;;;7.22;4.53;;;;;;;20.08;100.00;165821.00;4983789;28;20041;-55
2022/05/12 10:20:55;;;;;;;5.32;2.78;;;;;;;20.37;100.00;165897.00;4976025;28;20140;-55
2022/05/12 10:23:27;;;;;;;7.30;3.17;;;;;;;19.75;100.00;165734.13;4975248;28;20022;-55
2022/05/12 10:26:20;;;;;;;7.45;2.95;;;;;;;18.79;100.00;165481.75;4983696;28;20046;-54
2022/05/12 10:28:53;;;;;;;5.05;2.55;;;;;;;18.22;100.00;165332.56;4987811;28;20045;-55
2022/05/12 10:31:32;;;;;;;7.10;3.72;;;;;;;18.92;100.00;165517.06;4971911;28;20039;-54
2022/05/12 10:34:05;;;;;;;8.30;3.35;;;;;;;19.57;100.00;165687.97;4972935;28;20176;-54
2022/05/12 10:36:47;;;;;;;4.68;2.33;;;;;;;19.95;100.00;165787.09;4971332;28;20654;-55
2022/05/12 10:39:40;;;;;;;10.90;4.15;;;;;;;19.57;98.10;165687.97;4974305;28;20382;-54
2022/05/12 10:42:28;;;;;;;25.35;3.35;;;;;;;19.33;100.00;165625.56;4971094;28;20122;-55
2022/05/12 10:45:11;;;;;;;6.47;2.13;;;;;;;19.12;100.00;165569.97;4991138;28;20485;-54
2022/05/12 10:47:58;;;;;;;5.93;2.10;;;;;;;18.93;95.73;165518.38;4991492;28;20054;-55
2022/05/12 10:50:30;;;;;;;5.65;2.92;;;;;;;18.60;94.33;165432.91;4991686;28;20042;-54
2022/05/12 10:53:07;;;;;;;7.90;2.05;;;;;;;18.22;97.29;165332.56;4993364;28;20026;-55
2022/05/12 10:55:58;;;;;;;7.47;3.00;;;;;;;18.22;94.66;165332.56;4991722;28;20026;-54
2022/05/12 10:58:32;;;;;;;5.60;2.33;;;;;;;18.57;95.27;165424.78;4993425;28;20065;-55
2022/05/12 11:01:10;;;;;;;6.18;2.30;;;;;;;18.86;92.40;165502.06;4991934;28;20117;-55
2022/05/12 11:03:48;;;;;;;6.45;2.28;;;;;;;19.48;95.79;165663.53;4992689;28;20043;-54
2022/05/12 11:06:17;;;;;;;3.60;2.00;;;;;;;19.91;90.21;165776.22;4991701;28;20061;-54
2022/05/12 11:08:55;;;;;;;2.30;1.45;;;;;;;20.04;81.24;165811.50;4992939;28;20052;-55
2022/05/12 11:11:25;;;;;;;;;;;;;;;20.22;82.82;165859.00;4991950;28;20519;-55
2022/05/12 11:13:53;;;;;;;3.47;1.83;;;;;;;20.32;79.73;165883.44;4992851;28;19917;-54
2022/05/12 11:16:26;;;;;;;3.70;2.40;;;;;;;20.62;79.40;165963.56;4991484;28;20038;-54
2022/05/12 11:19:02;;;;;;;8.63;3.03;;;;;;;21.02;79.07;166068.16;4992454;28;20414;-55
2022/05/12 11:21:29;;;;;;;5.30;1.77;;;;;;;20.79;78.94;166008.41;4991511;28;20065;-54
2022/05/12 11:24:22;;;;;;;2.88;2.38;;;;;;;20.82;76.85;166016.53;4993149;28;20101;-54
2022/05/12 11:27:06;;;;;;;5.28;1.55;;;;;;;20.96;76.39;166051.88;4990797;28;20042;-54
2022/05/12 11:29:52;;;;;;;4.90;2.25;;;;;;;20.37;77.49;165897.00;4992608;28;20417;-54
2022/05/12 11:32:29;;;;;;;8.88;2.83;;;;;;;20.45;75.44;165920.13;4991139;28;20043;-55
2022/05/12 11:35:00;;;;;;;6.15;2.60;;;;;;;19.64;77.58;165706.97;4992295;28;20029;-54
2022/05/12 11:37:40;;;;;;;10.02;2.33;;;;;;;19.75;80.00;165734.13;4988686;28;20046;-54
2022/05/12 11:40:29;;;;;;;11.05;2.75;;;;;;;19.96;80.38;165791.16;4992027;28;20050;-54